»·PEaware :: N27JP KAPV-KBFL

N27JP :: KAPV-KBFL

FLIGHT INFORMATION

Flight Status: Arrived
Operator: Privately registered:
United States
More flights under this callsign
Pilot: Weston J. (31543)
Aircraft: BEECH AIRCRAFT BARON
(BE58)
More flights by this aircraft type
Origin: KAPV Apple Valley
United States
Destination: KBFL Meadows
United States
More flights between these airports :: More routes between these airports
Route: APLES V210 HESPE V137 PMD V197 AMONT
File this flight plan on PilotEdge
Remarks:
Altitude:
(Current/Filed)
6,500ft
Speed:
(Current/Filed)
176kts
Departed: 11-Oct-20 01:46 PM
Arrived: 11-Oct-20 02:45 PM
Distance/Time
Traveled:
6727nm/0:58
Distance/Time
To Go:
Arrived

Flight Plot

Page will automatically refresh every two minutes.

Flight plan parsing failed; only flown route is shown


Map Options




Map Legend


Flown Route
Filed Route
Departure Airport
Arrival Airport
Navaid (VOR, NDB)
Fix

Horizontal Profiles

Position Reports

Time Latitude Longitude Heading Altitude Ground
Speed
11-Oct-20 13:34 34.573768 -117.189011 144 2974ft 0kts
11-Oct-20 13:35 34.573768 -117.189011 144 2974ft 0kts
11-Oct-20 13:36 34.573768 -117.189011 144 2974ft 0kts
11-Oct-20 13:37 34.573769 -117.189011 144 2974ft 0kts
11-Oct-20 13:37 34.573768 -117.189011 144 2974ft 0kts
11-Oct-20 13:39 34.573768 -117.189011 144 2974ft 0kts
11-Oct-20 13:39 34.573769 -117.189011 144 2974ft 0kts
11-Oct-20 13:40 34.573769 -117.189011 144 2974ft 0kts
11-Oct-20 13:41 34.573769 -117.189011 144 2974ft 0kts
11-Oct-20 13:42 34.573769 -117.189011 144 2974ft 0kts
11-Oct-20 13:43 34.573208 -117.188473 109 2971ft 0kts
11-Oct-20 13:44 34.573117 -117.188058 101 2972ft 10kts
11-Oct-20 13:45 34.588885 -117.182442 12 3292ft 87kts
11-Oct-20 13:46 34.610444 -117.167808 99 3849ft 116kts
11-Oct-20 13:47 34.589530 -117.150559 176 4399ft 137kts
11-Oct-20 13:48 34.552298 -117.147585 199 4702ft 135kts
11-Oct-20 13:49 34.526152 -117.179800 229 5193ft 135kts
11-Oct-20 13:50 34.501233 -117.214069 229 5632ft 136kts
11-Oct-20 13:51 34.475785 -117.248807 228 6034ft 138kts
11-Oct-20 13:52 34.450411 -117.283412 228 6453ft 137kts
11-Oct-20 13:53 34.423516 -117.320042 228 6498ft 150kts
11-Oct-20 13:54 34.395624 -117.358032 228 6498ft 149kts
11-Oct-20 13:55 34.368071 -117.395490 228 6497ft 148kts
11-Oct-20 13:56 34.344884 -117.435159 282 6496ft 146kts
11-Oct-20 13:57 34.362197 -117.479599 299 6491ft 146kts
11-Oct-20 13:58 34.381719 -117.523116 299 6493ft 147kts
11-Oct-20 13:59 34.401180 -117.566886 299 6493ft 147kts
11-Oct-20 14:00 34.420659 -117.610771 299 6495ft 147kts
11-Oct-20 14:01 34.440120 -117.654646 299 6493ft 147kts
11-Oct-20 14:02 34.459450 -117.698303 299 6497ft 147kts
11-Oct-20 14:03 34.478755 -117.741970 299 6496ft 146kts
11-Oct-20 14:04 34.498027 -117.785606 299 6500ft 146kts
11-Oct-20 14:05 34.517224 -117.829156 299 6501ft 146kts
11-Oct-20 14:06 34.536270 -117.872367 299 6503ft 146kts
11-Oct-20 14:07 34.555491 -117.916069 299 6504ft 146kts
11-Oct-20 14:08 34.574507 -117.959343 299 6506ft 146kts
11-Oct-20 14:09 34.593665 -118.003001 299 6509ft 146kts
11-Oct-20 14:10 34.608987 -118.037947 299 6681ft 102kts
11-Oct-20 14:11 34.622506 -118.068827 300 7346ft 104kts
11-Oct-20 14:12 34.639867 -118.097355 318 7938ft 107kts
11-Oct-20 14:13 34.661466 -118.123120 320 8484ft 114kts
11-Oct-20 14:14 34.687654 -118.154415 318 8522ft 144kts
11-Oct-20 14:15 34.716826 -118.189460 318 8529ft 149kts
11-Oct-20 14:16 34.746279 -118.224870 318 8531ft 149kts
11-Oct-20 14:17 34.776143 -118.260832 317 8533ft 152kts
11-Oct-20 14:18 34.806250 -118.297082 317 8535ft 152kts
11-Oct-20 14:19 34.836185 -118.333203 317 8537ft 151kts
11-Oct-20 14:20 34.864071 -118.366858 317 8541ft 132kts
11-Oct-20 14:21 34.890873 -118.399252 317 8543ft 145kts
11-Oct-20 14:22 34.919861 -118.435500 299 8540ft 152kts
11-Oct-20 14:23 34.936143 -118.483546 292 8542ft 154kts
11-Oct-20 14:24 34.952435 -118.532451 292 8506ft 156kts
11-Oct-20 14:25 34.970007 -118.580770 311 8496ft 153kts
11-Oct-20 14:26 35.004216 -118.611072 326 8498ft 152kts
11-Oct-20 14:27 35.044688 -118.618041 1 8496ft 149kts
11-Oct-20 14:28 35.082920 -118.633182 321 8501ft 151kts
11-Oct-20 14:29 35.113363 -118.669278 315 8499ft 152kts
11-Oct-20 14:30 35.142983 -118.705518 315 8457ft 143kts
11-Oct-20 14:31 35.171980 -118.740918 315 7475ft 145kts
11-Oct-20 14:32 35.199902 -118.774794 316 6090ft 138kts
11-Oct-20 14:33 35.227099 -118.807581 316 4996ft 128kts
11-Oct-20 14:34 35.252919 -118.838742 316 4562ft 129kts
11-Oct-20 14:35 35.276678 -118.867178 317 4492ft 111kts
11-Oct-20 14:36 35.298850 -118.893902 316 4211ft 125kts
11-Oct-20 14:37 35.321020 -118.920468 316 3508ft 100kts
11-Oct-20 14:38 35.340381 -118.943732 317 2964ft 96kts
11-Oct-20 14:39 35.359186 -118.966354 317 2451ft 86kts
11-Oct-20 14:40 35.375499 -118.985981 317 2039ft 93kts
11-Oct-20 14:41 35.393720 -119.007564 316 1535ft 91kts
11-Oct-20 14:42 35.411737 -119.029523 316 1052ft 91kts
11-Oct-20 14:43 35.429695 -119.051363 314 593ft 83kts
11-Oct-20 14:44 35.436346 -119.057546 77 493ft 0kts
11-Oct-20 14:45 35.436346 -119.057546 77 493ft 0kts
11-Oct-20 14:46 35.436346 -119.057546 77 493ft 0kts
11-Oct-20 14:47 35.436346 -119.057546 77 493ft 0kts
11-Oct-20 14:48 35.436346 -119.057546 77 493ft 0kts
11-Oct-20 14:49 35.436346 -119.057546 77 493ft 0kts
11-Oct-20 14:50 35.436318 -119.054724 45 494ft 15kts
11-Oct-20 14:51 0.000408 0.013975 0 3ft 0kts

Navigation Log

Ident Type
Flight plan parsing failed, navigation log unavailable